createdAt,value
2018-03-31T00:00:06.190Z,1001.85
2018-03-31T00:01:06.256Z,1001.91
2018-03-31T00:02:06.178Z,1001.84
2018-03-31T00:03:06.232Z,1001.91
2018-03-31T00:04:06.207Z,1001.93
2018-03-31T00:05:06.197Z,1001.93
2018-03-31T00:06:06.441Z,1001.96
2018-03-31T00:07:06.213Z,1001.98
2018-03-31T00:08:06.215Z,1001.95
2018-03-31T00:09:06.198Z,1002.01
2018-03-31T00:10:06.229Z,1002
2018-03-31T00:11:06.215Z,1001.99
2018-03-31T00:12:06.207Z,1002.03
2018-03-31T00:13:06.208Z,1002.01
2018-03-31T00:14:06.232Z,1002.03
2018-03-31T00:15:06.187Z,1002.06
2018-03-31T00:16:06.235Z,1002.07
2018-03-31T00:17:06.197Z,1002.09
2018-03-31T00:18:06.184Z,1002.13
2018-03-31T00:19:06.225Z,1002.14
2018-03-31T00:20:06.176Z,1002.19
2018-03-31T00:21:06.185Z,1002.19
2018-03-31T00:22:06.257Z,1002.23
2018-03-31T00:23:06.203Z,1002.29
2018-03-31T00:24:06.183Z,1002.27
2018-03-31T00:25:06.195Z,1002.31
2018-03-31T00:26:06.182Z,1002.33
2018-03-31T00:27:06.175Z,1002.3
2018-03-31T00:28:06.222Z,1002.25
2018-03-31T00:29:06.193Z,1002.23
2018-03-31T00:30:06.210Z,1002.14
2018-03-31T00:31:06.216Z,1002.09
2018-03-31T00:32:06.199Z,1002.05
2018-03-31T00:33:06.197Z,1002
2018-03-31T00:34:06.206Z,1001.98
2018-03-31T00:35:06.206Z,1001.97
2018-03-31T00:36:06.185Z,1001.98
2018-03-31T00:37:06.213Z,1002.03
2018-03-31T00:38:06.199Z,1001.98
2018-03-31T00:39:06.184Z,1002.01
2018-03-31T00:40:06.225Z,1002.04
2018-03-31T00:41:06.200Z,1002.11
2018-03-31T00:42:06.169Z,1002.07
2018-03-31T00:43:06.219Z,1002.06
2018-03-31T00:44:06.190Z,1002.08
2018-03-31T00:45:06.184Z,1002.05
2018-03-31T00:46:06.187Z,1002.02
2018-03-31T00:47:06.172Z,1002.05
2018-03-31T00:48:06.209Z,1002
2018-03-31T00:49:06.185Z,1002.03
2018-03-31T00:50:06.172Z,1002.01
2018-03-31T00:51:06.166Z,1001.98
2018-03-31T00:52:06.185Z,1001.96
2018-03-31T00:53:06.429Z,1001.97
2018-03-31T00:54:06.168Z,1001.99
2018-03-31T00:55:06.197Z,1001.97
2018-03-31T00:56:06.166Z,1001.95
2018-03-31T00:57:06.167Z,1001.99
2018-03-31T00:58:06.231Z,1002.02
2018-03-31T00:59:06.164Z,1002.01
2018-03-31T01:00:06.187Z,1002.04
2018-03-31T01:01:06.238Z,1002.06
2018-03-31T01:02:06.168Z,1002.06
2018-03-31T01:03:06.214Z,1002.1
2018-03-31T01:04:06.209Z,1002.07
2018-03-31T01:05:06.155Z,1002.09
2018-03-31T01:06:06.183Z,1002.08
2018-03-31T01:07:06.208Z,1002.07
2018-03-31T01:08:06.202Z,1002.1
2018-03-31T01:09:06.192Z,1002.1
2018-03-31T01:10:06.206Z,1002.13
2018-03-31T01:11:06.151Z,1002.17
2018-03-31T01:12:06.182Z,1002.17
2018-03-31T01:13:06.244Z,1002.2
2018-03-31T01:14:06.194Z,1002.2
2018-03-31T01:15:06.163Z,1002.17
2018-03-31T01:16:06.187Z,1002.17
2018-03-31T01:17:06.163Z,1002.16
2018-03-31T01:18:06.192Z,1002.14
2018-03-31T01:19:06.195Z,1002.14
2018-03-31T01:20:06.167Z,1002.16
2018-03-31T01:21:06.151Z,1002.15
2018-03-31T01:22:06.205Z,1002.15
2018-03-31T01:23:06.175Z,1002.16
2018-03-31T01:24:06.152Z,1002.16
2018-03-31T01:25:06.190Z,1002.14
2018-03-31T01:26:06.173Z,1002.2
2018-03-31T01:27:06.167Z,1002.17
2018-03-31T01:28:06.230Z,1002.18
2018-03-31T01:29:06.148Z,1002.17
2018-03-31T01:30:06.150Z,1002.15
2018-03-31T01:31:06.175Z,1002.17
2018-03-31T01:32:06.243Z,1002.17
2018-03-31T01:33:06.184Z,1002.14
2018-03-31T01:34:06.209Z,1002.2
2018-03-31T01:35:06.148Z,1002.21
2018-03-31T01:36:06.160Z,1002.19
2018-03-31T01:37:06.277Z,1002.19
2018-03-31T01:38:06.254Z,1002.18
2018-03-31T01:39:06.194Z,1002.14
2018-03-31T01:40:06.197Z,1002.12
2018-03-31T01:41:06.174Z,1002.1
2018-03-31T01:42:06.172Z,1002.1
2018-03-31T01:43:06.186Z,1002.12
2018-03-31T01:44:06.182Z,1002.15
2018-03-31T01:45:06.171Z,1002.18
2018-03-31T01:46:06.182Z,1002.22
2018-03-31T01:47:06.158Z,1002.25
2018-03-31T01:48:06.162Z,1002.26
2018-03-31T01:49:06.220Z,1002.25
2018-03-31T01:50:06.148Z,1002.23
2018-03-31T01:51:06.157Z,1002.22
2018-03-31T01:52:06.171Z,1002.24
2018-03-31T01:53:06.173Z,1002.2
2018-03-31T01:54:06.183Z,1002.25
2018-03-31T01:55:06.194Z,1002.23
2018-03-31T01:56:06.168Z,1002.25
2018-03-31T01:57:06.168Z,1002.2
2018-03-31T01:58:06.193Z,1002.17
2018-03-31T01:59:06.167Z,1002.16
2018-03-31T02:00:06.165Z,1002.17
2018-03-31T02:01:06.173Z,1002.19
2018-03-31T02:02:06.166Z,1002.15
2018-03-31T02:03:06.224Z,1002.17
2018-03-31T02:04:06.174Z,1002.11
2018-03-31T02:05:06.143Z,1002.15
2018-03-31T02:06:06.168Z,1002.13
2018-03-31T02:07:06.182Z,1002.15
2018-03-31T02:08:06.178Z,1002.13
2018-03-31T02:09:06.177Z,1002.19
2018-03-31T02:10:06.194Z,1002.16
2018-03-31T02:11:06.189Z,1002.16
2018-03-31T02:12:06.165Z,1002.16
2018-03-31T02:13:06.184Z,1002.18
2018-03-31T02:14:06.134Z,1002.16
2018-03-31T02:15:06.141Z,1002.17
2018-03-31T02:16:06.199Z,1002.15
2018-03-31T02:17:06.151Z,1002.15
2018-03-31T02:18:06.164Z,1002.19
2018-03-31T02:19:06.160Z,1002.16
2018-03-31T02:20:06.141Z,1002.18
2018-03-31T02:21:06.148Z,1002.15
2018-03-31T02:22:06.191Z,1002.17
2018-03-31T02:23:06.160Z,1002.18
2018-03-31T02:24:06.137Z,1002.13
2018-03-31T02:25:06.172Z,1002.15
2018-03-31T02:26:06.152Z,1002.1
2018-03-31T02:27:06.149Z,1002.15
2018-03-31T02:28:06.198Z,1002.11
2018-03-31T02:29:06.174Z,1002.1
2018-03-31T02:30:06.146Z,1002.11
2018-03-31T02:31:06.187Z,1002.07
2018-03-31T02:32:06.131Z,1002.1
2018-03-31T02:33:06.258Z,1002.14
2018-03-31T02:34:06.257Z,1002.08
2018-03-31T02:35:06.148Z,1002.11
2018-03-31T02:36:06.157Z,1002.08
2018-03-31T02:37:06.166Z,1002
2018-03-31T02:38:06.174Z,1002.03
2018-03-31T02:39:06.145Z,1001.98
2018-03-31T02:40:06.183Z,1001.95
2018-03-31T02:41:06.176Z,1001.92
2018-03-31T02:42:06.140Z,1001.92
2018-03-31T02:43:06.168Z,1001.94
2018-03-31T02:44:06.188Z,1001.93
2018-03-31T02:45:06.168Z,1001.92
2018-03-31T02:46:06.205Z,1001.9
2018-03-31T02:47:06.127Z,1001.95
2018-03-31T02:48:06.151Z,1001.95
2018-03-31T02:49:06.182Z,1001.91
2018-03-31T02:50:06.436Z,1001.89
2018-03-31T02:51:06.170Z,1001.9
2018-03-31T02:52:06.182Z,1001.87
2018-03-31T02:53:06.120Z,1001.84
2018-03-31T02:54:06.156Z,1001.8
2018-03-31T02:55:06.173Z,1001.8
2018-03-31T02:56:06.167Z,1001.79
2018-03-31T02:57:06.178Z,1001.8
2018-03-31T02:58:06.159Z,1001.74
2018-03-31T02:59:06.151Z,1001.78
2018-03-31T03:00:06.159Z,1001.76
2018-03-31T03:01:06.155Z,1001.75
2018-03-31T03:02:06.144Z,1001.75
2018-03-31T03:03:06.152Z,1001.71
2018-03-31T03:04:06.155Z,1001.73
2018-03-31T03:05:06.235Z,1001.69
2018-03-31T03:06:06.129Z,1001.7
2018-03-31T03:07:06.156Z,1001.71
2018-03-31T03:08:06.153Z,1001.69
2018-03-31T03:09:06.141Z,1001.69
2018-03-31T03:10:06.191Z,1001.63
2018-03-31T03:11:06.147Z,1001.61
2018-03-31T03:12:06.140Z,1001.63
2018-03-31T03:13:06.160Z,1001.62
2018-03-31T03:14:06.136Z,1001.61
2018-03-31T03:15:06.151Z,1001.62
2018-03-31T03:16:06.167Z,1001.62
2018-03-31T03:17:06.165Z,1001.64
2018-03-31T03:18:06.116Z,1001.61
2018-03-31T03:19:06.154Z,1001.64
2018-03-31T03:20:06.154Z,1001.61
2018-03-31T03:21:06.151Z,1001.63
2018-03-31T03:22:06.142Z,1001.58
2018-03-31T03:23:06.207Z,1001.6
2018-03-31T03:24:06.133Z,1001.6
2018-03-31T03:25:06.178Z,1001.57
2018-03-31T03:26:06.119Z,1001.55
2018-03-31T03:27:06.114Z,1001.56
2018-03-31T03:28:06.133Z,1001.53
2018-03-31T03:29:06.135Z,1001.54
2018-03-31T03:30:06.160Z,1001.54
2018-03-31T03:31:06.157Z,1001.54
2018-03-31T03:32:06.148Z,1001.54
2018-03-31T03:33:06.117Z,1001.53
2018-03-31T03:34:06.148Z,1001.55
2018-03-31T03:35:06.139Z,1001.54
2018-03-31T03:36:06.184Z,1001.52
2018-03-31T03:37:06.160Z,1001.52
2018-03-31T03:38:06.239Z,1001.51
2018-03-31T03:39:06.217Z,1001.54
2018-03-31T03:40:06.172Z,1001.5
2018-03-31T03:41:06.120Z,1001.51
2018-03-31T03:42:06.149Z,1001.5
2018-03-31T03:43:06.138Z,1001.56
2018-03-31T03:44:06.157Z,1001.55
2018-03-31T03:45:06.126Z,1001.55
2018-03-31T03:46:06.126Z,1001.54
2018-03-31T03:47:06.258Z,1001.56
2018-03-31T03:48:06.117Z,1001.53
2018-03-31T03:49:06.156Z,1001.54
2018-03-31T03:50:06.125Z,1001.57
2018-03-31T03:51:06.112Z,1001.54
2018-03-31T03:52:06.187Z,1001.53
2018-03-31T03:53:06.115Z,1001.52
2018-03-31T03:54:06.107Z,1001.59
2018-03-31T03:55:06.145Z,1001.58
2018-03-31T03:56:06.096Z,1001.59
2018-03-31T03:57:06.111Z,1001.64
2018-03-31T03:58:06.170Z,1001.62
2018-03-31T03:59:06.113Z,1001.66
2018-03-31T04:00:06.114Z,1001.63
2018-03-31T04:01:06.145Z,1001.66
2018-03-31T04:02:06.131Z,1001.62
2018-03-31T04:03:06.130Z,1001.68
2018-03-31T04:04:06.138Z,1001.68
2018-03-31T04:05:06.105Z,1001.66
2018-03-31T04:06:06.113Z,1001.65
2018-03-31T04:07:06.212Z,1001.65
2018-03-31T04:08:06.122Z,1001.64
2018-03-31T04:09:06.155Z,1001.64
2018-03-31T04:10:06.142Z,1001.63
2018-03-31T04:11:06.102Z,1001.64
2018-03-31T04:12:06.116Z,1001.61
2018-03-31T04:13:06.156Z,1001.6
2018-03-31T04:14:06.107Z,1001.66
2018-03-31T04:15:06.128Z,1001.65
2018-03-31T04:16:06.141Z,1001.69
2018-03-31T04:17:06.108Z,1001.69
2018-03-31T04:18:06.384Z,1001.7
2018-03-31T04:19:06.124Z,1001.67
2018-03-31T04:20:06.118Z,1001.7
2018-03-31T04:21:06.115Z,1001.65
2018-03-31T04:22:06.127Z,1001.75
2018-03-31T04:23:06.145Z,1001.71
2018-03-31T04:24:06.101Z,1001.73
2018-03-31T04:25:06.128Z,1001.74
2018-03-31T04:26:06.141Z,1001.72
2018-03-31T04:27:06.129Z,1001.77
2018-03-31T04:28:06.135Z,1001.73
2018-03-31T04:29:06.098Z,1001.73
2018-03-31T04:30:06.133Z,1001.76
2018-03-31T04:31:06.174Z,1001.75
2018-03-31T04:32:06.119Z,1001.73
2018-03-31T04:33:06.119Z,1001.75
2018-03-31T04:34:06.200Z,1001.74
2018-03-31T04:35:06.097Z,1001.7
2018-03-31T04:36:06.114Z,1001.8
2018-03-31T04:37:06.125Z,1001.76
2018-03-31T04:38:06.144Z,1001.76
2018-03-31T04:39:06.095Z,1001.76
2018-03-31T04:40:06.149Z,1001.75
2018-03-31T04:41:06.109Z,1001.77
2018-03-31T04:42:06.095Z,1001.82
2018-03-31T04:43:06.113Z,1001.8
2018-03-31T04:44:06.110Z,1001.78
2018-03-31T04:45:06.111Z,1001.79
2018-03-31T04:46:06.164Z,1001.79
2018-03-31T04:47:06.093Z,1001.81
2018-03-31T04:48:06.090Z,1001.82
2018-03-31T04:49:06.155Z,1001.85
2018-03-31T04:50:06.128Z,1001.89
2018-03-31T04:51:06.124Z,1001.88
2018-03-31T04:52:06.188Z,1001.86
2018-03-31T04:53:06.130Z,1001.86
2018-03-31T04:54:06.104Z,1001.81
2018-03-31T04:55:06.138Z,1001.81
2018-03-31T04:56:06.108Z,1001.82
2018-03-31T04:57:06.095Z,1001.8
2018-03-31T04:58:06.280Z,1001.8
2018-03-31T04:59:06.113Z,1001.82
2018-03-31T05:00:06.089Z,1001.85
2018-03-31T05:01:06.135Z,1001.86
2018-03-31T05:02:06.118Z,1001.83
2018-03-31T05:03:06.083Z,1001.84
2018-03-31T05:04:06.158Z,1001.85
2018-03-31T05:05:06.099Z,1001.85
2018-03-31T05:06:06.097Z,1001.85
2018-03-31T05:07:06.123Z,1001.86
2018-03-31T05:08:06.090Z,1001.89
2018-03-31T05:09:06.182Z,1001.88
2018-03-31T05:10:06.124Z,1001.86
2018-03-31T05:11:06.089Z,1001.85
2018-03-31T05:12:06.087Z,1001.84
2018-03-31T05:13:06.137Z,1001.87
2018-03-31T05:14:06.082Z,1001.89
2018-03-31T05:15:06.087Z,1001.85
2018-03-31T05:16:06.129Z,1001.91
2018-03-31T05:17:06.091Z,1001.91
2018-03-31T05:18:06.150Z,1001.92
2018-03-31T05:19:06.123Z,1001.9
2018-03-31T05:20:06.091Z,1001.93
2018-03-31T05:21:06.099Z,1001.95
2018-03-31T05:22:06.142Z,1001.94
2018-03-31T05:23:06.116Z,1001.94
2018-03-31T05:24:06.101Z,1001.99
2018-03-31T05:25:06.145Z,1001.96
2018-03-31T05:26:06.097Z,1001.96
2018-03-31T05:27:06.105Z,1001.98
2018-03-31T05:28:06.127Z,1001.99
2018-03-31T05:29:06.122Z,1002
2018-03-31T05:30:06.102Z,1001.97
2018-03-31T05:31:06.121Z,1002
2018-03-31T05:32:06.099Z,1002.04
2018-03-31T05:33:06.075Z,1001.99
2018-03-31T05:34:06.112Z,1002.05
2018-03-31T05:35:06.111Z,1002.06
2018-03-31T05:36:06.098Z,1002.05
2018-03-31T05:37:06.110Z,1002.08
2018-03-31T05:38:06.074Z,1002.09
2018-03-31T05:39:06.211Z,1002.1
2018-03-31T05:40:06.366Z,1002.08
2018-03-31T05:41:06.080Z,1002.14
2018-03-31T05:42:06.175Z,1002.14
2018-03-31T05:43:06.111Z,1002.1
2018-03-31T05:44:06.099Z,1002.09
2018-03-31T05:45:06.077Z,1002.07
2018-03-31T05:46:06.111Z,1002.08
2018-03-31T05:47:06.078Z,1002.05
2018-03-31T05:48:06.069Z,1002.06
2018-03-31T05:49:06.387Z,1002.05
2018-03-31T05:50:06.071Z,1002.09
2018-03-31T05:51:06.088Z,1002.08
2018-03-31T05:52:06.115Z,1002.02
2018-03-31T05:53:06.087Z,1001.99
2018-03-31T05:54:06.135Z,1002.01
2018-03-31T05:55:06.104Z,1002.01
2018-03-31T05:56:06.090Z,1002.04
2018-03-31T05:57:06.115Z,1002.02
2018-03-31T05:58:06.126Z,1002
2018-03-31T05:59:06.372Z,1002.07
2018-03-31T06:00:06.083Z,1002.1
2018-03-31T06:01:06.095Z,1002.08
2018-03-31T06:02:06.081Z,1002.12
2018-03-31T06:03:06.065Z,1002.16
2018-03-31T06:04:06.247Z,1002.09
2018-03-31T06:05:06.081Z,1002.07
2018-03-31T06:06:06.075Z,1002.1
2018-03-31T06:07:06.132Z,1002.07
2018-03-31T06:08:06.063Z,1002.03
2018-03-31T06:09:06.109Z,1002.03
2018-03-31T06:10:06.097Z,1002.08
2018-03-31T06:11:06.119Z,1002.06
2018-03-31T06:12:06.103Z,1002.06
2018-03-31T06:13:06.141Z,1002.05
2018-03-31T06:14:06.069Z,1002.06
2018-03-31T06:15:06.122Z,1002.04
2018-03-31T06:16:06.117Z,1002.05
2018-03-31T06:17:06.072Z,1002.05
2018-03-31T06:18:06.127Z,1002.01
2018-03-31T06:19:06.088Z,1002.03
2018-03-31T06:20:06.101Z,1002.06
2018-03-31T06:21:06.349Z,1002.06
2018-03-31T06:22:06.090Z,1002.05
2018-03-31T06:23:06.071Z,1002.06
2018-03-31T06:24:06.074Z,1002.05
2018-03-31T06:25:06.241Z,1002.03
2018-03-31T06:26:06.067Z,1002
2018-03-31T06:27:06.074Z,1001.98
2018-03-31T06:28:06.112Z,1002.04
2018-03-31T06:29:06.111Z,1002.04
2018-03-31T06:30:06.090Z,1002
2018-03-31T06:31:06.156Z,1002.04
2018-03-31T06:32:06.083Z,1002.06
2018-03-31T06:33:06.075Z,1002.07
2018-03-31T06:34:06.105Z,1002.06
2018-03-31T06:35:06.097Z,1002.05
2018-03-31T06:36:06.103Z,1002.07
2018-03-31T06:37:06.107Z,1002.1
2018-03-31T06:38:06.055Z,1002.07
2018-03-31T06:39:06.071Z,1002.06
2018-03-31T06:40:06.107Z,1002.07
2018-03-31T06:41:06.057Z,1002.12
2018-03-31T06:42:06.131Z,1002.09
2018-03-31T06:43:06.088Z,1002.07
2018-03-31T06:44:06.102Z,1002.11
2018-03-31T06:45:06.217Z,1002.13
2018-03-31T06:46:06.119Z,1002.13
2018-03-31T06:47:06.081Z,1002.15
2018-03-31T06:48:06.056Z,1002.13
2018-03-31T06:49:06.102Z,1002.17
2018-03-31T06:50:06.080Z,1002.17
2018-03-31T06:51:06.065Z,1002.1
2018-03-31T06:52:06.112Z,1002.16
2018-03-31T06:53:06.064Z,1002.1
2018-03-31T06:54:06.061Z,1002.15
2018-03-31T06:55:06.091Z,1002.14
2018-03-31T06:56:06.062Z,1002.16
2018-03-31T06:57:06.063Z,1002.17
2018-03-31T06:58:06.111Z,1002.19
2018-03-31T06:59:06.061Z,1002.2
2018-03-31T07:00:06.088Z,1002.2
2018-03-31T07:01:06.088Z,1002.12
2018-03-31T07:02:06.100Z,1002.15
2018-03-31T07:03:06.078Z,1002.14
2018-03-31T07:04:06.090Z,1002.13
2018-03-31T07:05:06.055Z,1002.12
2018-03-31T07:06:06.074Z,1002.09
2018-03-31T07:07:06.077Z,1002.1
2018-03-31T07:08:06.047Z,1002.07
2018-03-31T07:09:06.070Z,1002.06
2018-03-31T07:10:06.091Z,1002.04
2018-03-31T07:11:06.071Z,1002.05
2018-03-31T07:12:06.088Z,1002.06
2018-03-31T07:13:06.157Z,1002.06
2018-03-31T07:14:06.065Z,1002.09
2018-03-31T07:15:06.079Z,1002.05
2018-03-31T07:16:06.109Z,1002.07
2018-03-31T07:17:06.054Z,1002.05
2018-03-31T07:18:06.078Z,1002.08
2018-03-31T07:19:06.106Z,1002.07
2018-03-31T07:20:06.047Z,1002.1
2018-03-31T07:21:06.068Z,1002.09
2018-03-31T07:22:06.129Z,1002.06
2018-03-31T07:23:06.054Z,1002.06
2018-03-31T07:24:06.098Z,1002.08
2018-03-31T07:26:09.744Z,1002.08
2018-03-31T07:27:06.168Z,1002.09
2018-03-31T07:28:06.128Z,1002.11
2018-03-31T07:29:06.064Z,1002.11
2018-03-31T07:30:06.145Z,1002.07
2018-03-31T07:31:06.107Z,1002.09
2018-03-31T07:32:06.304Z,1002.09
2018-03-31T07:33:06.124Z,1002.08
2018-03-31T07:34:06.102Z,1002.09
2018-03-31T07:35:06.162Z,1002.11
2018-03-31T07:36:06.161Z,1002.12
2018-03-31T07:37:06.149Z,1002.13
2018-03-31T07:38:06.240Z,1002.06
2018-03-31T07:39:06.058Z,1002.09
2018-03-31T07:40:06.218Z,1002.11
2018-03-31T07:41:06.267Z,1002.11
2018-03-31T07:42:06.150Z,1002.1
2018-03-31T07:43:06.140Z,1002.14
2018-03-31T07:44:06.165Z,1002.13
2018-03-31T07:45:06.151Z,1002.16
2018-03-31T07:46:06.437Z,1002.16
2018-03-31T07:47:06.133Z,1002.13
2018-03-31T07:48:06.149Z,1002.14
2018-03-31T07:49:06.143Z,1002.18
2018-03-31T07:50:06.162Z,1002.13
2018-03-31T07:51:06.108Z,1002.14
2018-03-31T07:52:06.265Z,1002.11
2018-03-31T07:53:06.122Z,1002.15
2018-03-31T07:54:06.064Z,1002.19
2018-03-31T07:55:06.107Z,1002.18
2018-03-31T07:56:06.165Z,1002.19
2018-03-31T07:57:06.057Z,1002.17
2018-03-31T07:58:06.140Z,1002.18
2018-03-31T07:59:06.143Z,1002.19
2018-03-31T08:00:06.097Z,1002.21
2018-03-31T08:01:06.203Z,1002.19
2018-03-31T08:02:06.153Z,1002.22
2018-03-31T08:03:06.165Z,1002.18
2018-03-31T08:04:06.141Z,1002.2
2018-03-31T08:05:06.181Z,1002.19
2018-03-31T08:06:06.183Z,1002.14
2018-03-31T08:07:06.124Z,1002.18
2018-03-31T08:08:06.190Z,1002.18
2018-03-31T08:09:06.062Z,1002.18
2018-03-31T08:10:06.173Z,1002.14
2018-03-31T08:11:06.138Z,1002.18
2018-03-31T08:12:06.138Z,1002.17
2018-03-31T08:13:06.133Z,1002.19
2018-03-31T08:14:06.141Z,1002.16
2018-03-31T08:15:06.165Z,1002.16
2018-03-31T08:16:06.159Z,1002.16
2018-03-31T08:17:06.159Z,1002.16
2018-03-31T08:18:06.152Z,1002.14
2018-03-31T08:19:06.117Z,1002.23
2018-03-31T08:20:06.131Z,1002.24
2018-03-31T08:21:06.092Z,1002.18
2018-03-31T08:22:06.092Z,1002.18
2018-03-31T08:23:06.086Z,1002.22
2018-03-31T08:24:06.142Z,1002.26
2018-03-31T08:25:06.128Z,1002.22
2018-03-31T08:26:06.106Z,1002.2
2018-03-31T08:27:06.081Z,1002.22
2018-03-31T08:28:06.168Z,1002.22
2018-03-31T08:29:06.154Z,1002.16
2018-03-31T08:30:06.153Z,1002.23
2018-03-31T08:31:06.164Z,1002.23
2018-03-31T08:32:06.157Z,1002.22
2018-03-31T08:33:06.132Z,1002.21
2018-03-31T08:34:06.361Z,1002.21
2018-03-31T08:35:06.292Z,1002.21
2018-03-31T08:36:06.165Z,1002.19
2018-03-31T08:37:06.146Z,1002.19
2018-03-31T08:38:06.080Z,1002.13
2018-03-31T08:39:06.150Z,1002.17
2018-03-31T08:40:06.144Z,1002.15
2018-03-31T08:41:06.145Z,1002.2
2018-03-31T08:42:06.146Z,1002.17
2018-03-31T08:43:06.160Z,1002.14
2018-03-31T08:44:06.148Z,1002.13
2018-03-31T08:45:06.098Z,1002.14
2018-03-31T08:46:06.230Z,1002.16
2018-03-31T08:47:06.382Z,1002.08
2018-03-31T08:48:06.163Z,1002.08
2018-03-31T08:49:06.114Z,1002.11
2018-03-31T08:50:06.132Z,1002.09
2018-03-31T08:51:06.122Z,1002.14
2018-03-31T08:52:06.140Z,1002.11
2018-03-31T08:53:06.116Z,1002.14
2018-03-31T08:54:06.106Z,1002.17
2018-03-31T08:55:06.120Z,1002.2
2018-03-31T08:56:06.148Z,1002.21
2018-03-31T08:57:06.110Z,1002.19
2018-03-31T08:58:06.120Z,1002.19
2018-03-31T08:59:06.115Z,1002.2
2018-03-31T09:00:09.207Z,1002.19
2018-03-31T09:01:06.123Z,1002.22
2018-03-31T09:02:08.730Z,1002.22
2018-03-31T09:03:06.119Z,1002.26
2018-03-31T09:04:06.115Z,1002.2
2018-03-31T09:05:06.268Z,1002.19
2018-03-31T09:06:06.098Z,1002.18
2018-03-31T09:07:06.126Z,1002.17
2018-03-31T09:08:06.111Z,1002.19
2018-03-31T09:09:06.219Z,1002.18
2018-03-31T09:10:06.120Z,1002.13
2018-03-31T09:11:06.115Z,1002.13
2018-03-31T09:12:06.131Z,1002.12
2018-03-31T09:13:06.113Z,1002.13
2018-03-31T09:14:06.109Z,1002.14
2018-03-31T09:15:06.120Z,1002.15
2018-03-31T09:16:06.160Z,1002.15
2018-03-31T09:17:06.244Z,1002.13
2018-03-31T09:18:06.114Z,1002.16
2018-03-31T09:19:06.120Z,1002.13
2018-03-31T09:20:06.098Z,1002.17
2018-03-31T09:21:06.110Z,1002.13
2018-03-31T09:22:06.101Z,1002.11
2018-03-31T09:23:06.305Z,1002.13
2018-03-31T09:24:06.161Z,1002.13
2018-03-31T09:25:06.141Z,1002.1
2018-03-31T09:26:06.148Z,1002.12
2018-03-31T09:27:06.208Z,1002.08
2018-03-31T09:28:06.150Z,1002.09
2018-03-31T09:29:06.114Z,1002.05
2018-03-31T09:30:06.124Z,1002.09
2018-03-31T09:31:06.122Z,1002.14
2018-03-31T09:32:06.084Z,1002.15
2018-03-31T09:33:06.412Z,1002.13
2018-03-31T09:34:06.126Z,1002.14
2018-03-31T09:35:06.192Z,1002.18
2018-03-31T09:36:06.115Z,1002.17
2018-03-31T09:37:06.106Z,1002.19
2018-03-31T09:38:06.193Z,1002.19
2018-03-31T09:39:06.112Z,1002.17
2018-03-31T09:40:06.098Z,1002.11
2018-03-31T09:41:06.218Z,1002.11
2018-03-31T09:42:06.196Z,1002.11
2018-03-31T09:43:06.092Z,1002.13
2018-03-31T09:44:06.164Z,1002.09
2018-03-31T09:45:06.131Z,1002.1
2018-03-31T09:46:06.081Z,1002.12
2018-03-31T09:47:06.108Z,1002.14
2018-03-31T09:48:09.627Z,1002.11
2018-03-31T09:49:10.214Z,1002.05
2018-03-31T09:50:06.154Z,1002.1
2018-03-31T09:51:09.524Z,1002.05
2018-03-31T09:52:06.125Z,1002.11
2018-03-31T09:53:06.119Z,1002.06
2018-03-31T09:54:06.078Z,1002.07
2018-03-31T09:55:06.094Z,1002.07
2018-03-31T09:56:06.110Z,1002.05
2018-03-31T09:57:06.114Z,1002.05
2018-03-31T09:58:06.136Z,1002.03
2018-03-31T09:59:06.104Z,1002.03
2018-03-31T10:00:13.157Z,1002.04
2018-03-31T10:01:06.087Z,1002.05
2018-03-31T10:02:06.097Z,1002.05
2018-03-31T10:03:06.136Z,1002.07
2018-03-31T10:04:06.111Z,1002.05
2018-03-31T10:05:06.144Z,1002.06
2018-03-31T10:06:06.131Z,1002.03
2018-03-31T10:07:06.083Z,1002.06
2018-03-31T10:08:06.111Z,1002.08
2018-03-31T10:09:06.091Z,1002.09
2018-03-31T10:10:06.106Z,1002.06
2018-03-31T10:11:06.169Z,1002.1
2018-03-31T10:12:06.112Z,1002.09
2018-03-31T10:13:06.124Z,1002.12
2018-03-31T10:14:06.146Z,1002.1
2018-03-31T10:15:06.080Z,1002.1
2018-03-31T10:16:06.082Z,1002.13
2018-03-31T10:17:06.093Z,1002.11
2018-03-31T10:18:06.076Z,1002.11
2018-03-31T10:19:06.154Z,1002.12
2018-03-31T10:20:06.094Z,1002.14
2018-03-31T10:21:06.146Z,1002.18
2018-03-31T10:22:06.083Z,1002.11
2018-03-31T10:23:06.095Z,1002.14
2018-03-31T10:24:06.089Z,1002.12
2018-03-31T10:25:06.134Z,1002.18
2018-03-31T10:26:06.103Z,1002.13
2018-03-31T10:27:06.093Z,1002.14
2018-03-31T10:28:06.093Z,1002.15
2018-03-31T10:29:06.090Z,1002.16
2018-03-31T10:30:06.130Z,1002.16
2018-03-31T10:31:06.104Z,1002.11
2018-03-31T10:32:06.082Z,1002.14
2018-03-31T10:33:06.093Z,1002.23
2018-03-31T10:34:06.097Z,1002.13
2018-03-31T10:35:06.098Z,1002.19
2018-03-31T10:36:06.135Z,1002.16
2018-03-31T10:37:06.097Z,1002.14
2018-03-31T10:38:06.091Z,1002.13
2018-03-31T10:39:06.111Z,1002.1
2018-03-31T10:40:06.086Z,1002.1
2018-03-31T10:41:06.093Z,1002.12
2018-03-31T10:42:06.090Z,1002.08
2018-03-31T10:43:06.066Z,1002.08
2018-03-31T10:44:06.111Z,1002.09
2018-03-31T10:45:06.085Z,1002.09
2018-03-31T10:46:06.115Z,1002.1
2018-03-31T10:47:06.077Z,1002.12
2018-03-31T10:48:06.139Z,1002.07
2018-03-31T10:49:06.067Z,1002.07
2018-03-31T10:50:06.104Z,1002
2018-03-31T10:51:06.108Z,1002.03
2018-03-31T10:52:06.116Z,1002
2018-03-31T10:53:06.115Z,1001.98
2018-03-31T10:54:06.101Z,1001.98
2018-03-31T10:55:06.081Z,1002
2018-03-31T10:56:06.075Z,1001.95
2018-03-31T10:57:06.063Z,1001.97
2018-03-31T10:58:06.079Z,1001.93
2018-03-31T10:59:06.090Z,1001.97
2018-03-31T11:00:06.091Z,1001.93
2018-03-31T11:01:06.093Z,1001.96
2018-03-31T11:02:06.105Z,1001.99
2018-03-31T11:03:06.077Z,1001.96
2018-03-31T11:04:06.160Z,1001.99
2018-03-31T11:05:06.109Z,1001.97
2018-03-31T11:06:06.084Z,1001.95
2018-03-31T11:07:06.093Z,1002
2018-03-31T11:08:06.090Z,1001.96
2018-03-31T11:09:06.099Z,1001.95
2018-03-31T11:10:06.093Z,1002
2018-03-31T11:11:06.079Z,1001.97
2018-03-31T11:12:06.108Z,1001.94
2018-03-31T11:13:06.067Z,1001.94
2018-03-31T11:14:06.073Z,1001.99
2018-03-31T11:15:06.102Z,1001.99
2018-03-31T11:16:06.074Z,1001.98
2018-03-31T11:17:06.119Z,1002
2018-03-31T11:18:06.088Z,1002.02
2018-03-31T11:19:06.066Z,1002.02
2018-03-31T11:20:06.096Z,1002.03
2018-03-31T11:21:06.072Z,1001.99
2018-03-31T11:22:06.083Z,1002.06
2018-03-31T11:23:06.177Z,1002.02
2018-03-31T11:24:06.137Z,1002.03
2018-03-31T11:25:06.113Z,1002.02
2018-03-31T11:26:06.074Z,1002
2018-03-31T11:27:06.086Z,1001.99
2018-03-31T11:28:06.103Z,1001.97
2018-03-31T11:29:06.109Z,1002.03
2018-03-31T11:30:06.097Z,1002.03
2018-03-31T11:31:06.059Z,1002.05
2018-03-31T11:32:06.140Z,1002.07
2018-03-31T11:33:06.073Z,1002.02
2018-03-31T11:34:06.085Z,1002.03
2018-03-31T11:35:06.061Z,1002.01
2018-03-31T11:36:06.090Z,1002.02
2018-03-31T11:37:06.067Z,1001.98
2018-03-31T11:38:06.077Z,1002.02
2018-03-31T11:39:06.103Z,1001.96
2018-03-31T11:40:06.058Z,1002.02
2018-03-31T11:41:06.082Z,1001.99
2018-03-31T11:42:06.226Z,1001.98
2018-03-31T11:43:06.160Z,1001.97
2018-03-31T11:44:06.077Z,1001.95
2018-03-31T11:45:06.248Z,1001.91
2018-03-31T11:46:06.096Z,1001.92
2018-03-31T11:47:06.076Z,1001.9
2018-03-31T11:48:06.103Z,1001.92
2018-03-31T11:49:06.091Z,1001.94
2018-03-31T11:50:06.082Z,1001.91
2018-03-31T11:51:06.108Z,1001.93
2018-03-31T11:52:06.079Z,1001.89
2018-03-31T11:53:06.049Z,1001.84
2018-03-31T11:54:06.229Z,1001.89
2018-03-31T11:55:06.050Z,1001.87
2018-03-31T11:56:06.071Z,1001.89
2018-03-31T11:57:06.091Z,1001.85
2018-03-31T11:58:06.053Z,1001.88
2018-03-31T11:59:06.105Z,1001.88
2018-03-31T12:00:06.069Z,1001.88
2018-03-31T12:01:06.182Z,1001.89
2018-03-31T12:02:06.065Z,1001.87
2018-03-31T12:03:06.064Z,1001.84
2018-03-31T12:04:06.096Z,1001.87
2018-03-31T12:05:06.070Z,1001.85
2018-03-31T12:06:06.086Z,1001.86
2018-03-31T12:07:06.046Z,1001.84
2018-03-31T12:08:06.073Z,1001.83
2018-03-31T12:09:06.104Z,1001.81
2018-03-31T12:10:06.061Z,1001.8